Time;durP1;ratioP1;P1;durP2;ratioP2;P2;SDS_P1;SDS_P2;PMS_P1;PMS_P2;Temp;Humidity;BMP_temperature;BMP_pressure;BME280_temperature;BME280_humidity;BME280_pressure;Samples;Min_cycle;Max_cycle;Signal;HPM_P1;HPM_P2
2022/03/04 00:01:53;;;;;;;;;;;4.90;53.30;;;;;;8402681;28;19927;-71
2022/03/04 00:05:55;;;;;;;;;;;4.90;53.20;;;;;;8407075;28;19920;-71
2022/03/04 00:09:56;;;;;;;;;;;4.90;53.80;;;;;;8392315;28;19920;-71
2022/03/04 00:13:58;;;;;;;;;;;4.80;53.90;;;;;;8382936;28;19947;-71
2022/03/04 00:17:59;;;;;;;;;;;4.80;54.20;;;;;;8399291;28;19931;-71
2022/03/04 00:22:01;;;;;;;;;;;4.80;54.10;;;;;;8386118;28;19924;-71
2022/03/04 00:26:04;;;;;;;;;;;4.70;54.10;;;;;;8390620;28;20022;-71
2022/03/04 00:30:06;;;;;;;;;;;4.60;53.70;;;;;;8409801;28;20367;-71
2022/03/04 00:34:08;;;;;;;;;;;4.60;54.30;;;;;;8411734;28;20412;-71
2022/03/04 00:38:09;;;;;;;;;;;4.50;54.30;;;;;;8395496;28;19975;-71
2022/03/04 00:42:11;;;;;;;;;;;4.50;54.40;;;;;;8411187;28;19924;-71
2022/03/04 00:46:13;;;;;;;;;;;4.50;54.30;;;;;;8379786;28;19974;-71
2022/03/04 00:50:15;;;;;;;;;;;4.50;54.90;;;;;;8394477;28;20347;-71
2022/03/04 00:54:16;;;;;;;;;;;4.40;55.00;;;;;;8398368;28;19927;-71
2022/03/04 00:58:18;;;;;;;;;;;4.30;54.70;;;;;;8408081;28;19920;-71
2022/03/04 01:02:19;;;;;;;;;;;4.20;54.60;;;;;;8401032;28;19928;-71
2022/03/04 01:06:21;;;;;;;;;;;4.10;54.70;;;;;;8386611;28;19923;-71
2022/03/04 01:10:23;;;;;;;;;;;4.00;54.40;;;;;;8408312;28;19931;-71
2022/03/04 01:14:25;;;;;;;;;;;3.90;54.50;;;;;;8395120;28;20380;-71
2022/03/04 01:18:26;;;;;;;;;;;3.80;53.80;;;;;;8401517;28;19920;-71
2022/03/04 01:22:28;;;;;;;;;;;3.70;54.10;;;;;;8386278;28;19975;-70
2022/03/04 01:26:29;;;;;;;;;;;3.70;54.50;;;;;;8410115;28;19967;-71
2022/03/04 01:30:31;;;;;;;;;;;3.70;54.10;;;;;;8411271;28;20344;-71
2022/03/04 01:34:33;;;;;;;;;;;3.60;54.40;;;;;;8410212;28;19920;-71
2022/03/04 01:38:34;;;;;;;;;;;3.60;54.40;;;;;;8392033;28;19927;-71
2022/03/04 01:42:37;;;;;;;;;;;3.50;53.80;;;;;;8386760;28;19920;-71
2022/03/04 01:46:39;;;;;;;;;;;3.40;53.10;;;;;;8399528;28;20380;-72
2022/03/04 01:50:40;;;;;;;;;;;3.40;53.50;;;;;;8382880;28;20181;-71
2022/03/04 01:54:42;;;;;;;;;;;3.20;53.00;;;;;;8402381;28;19974;-71
2022/03/04 01:58:45;;;;;;;;;;;3.10;52.90;;;;;;8401912;28;19927;-71
2022/03/04 02:02:47;;;;;;;;;;;3.00;53.10;;;;;;8402320;28;19920;-71
2022/03/04 02:06:49;;;;;;;;;;;2.90;53.10;;;;;;8395664;28;20269;-71
2022/03/04 02:10:51;;;;;;;;;;;2.70;53.20;;;;;;8397500;28;19924;-72
2022/03/04 02:14:52;;;;;;;;;;;2.60;53.20;;;;;;8398402;28;19967;-71
2022/03/04 02:18:54;;;;;;;;;;;2.60;53.50;;;;;;8391217;28;20306;-71
2022/03/04 02:22:56;;;;;;;;;;;2.40;53.60;;;;;;8411393;28;22320;-71
2022/03/04 02:26:59;;;;;;;;;;;2.40;53.50;;;;;;8407343;28;20332;-71
2022/03/04 02:31:01;;;;;;;;;;;2.20;53.80;;;;;;8411934;28;19967;-71
2022/03/04 02:35:03;;;;;;;;;;;2.10;54.00;;;;;;8413571;28;19967;-72
2022/03/04 02:39:05;;;;;;;;;;;1.90;54.00;;;;;;8396799;28;19974;-71
2022/03/04 02:43:07;;;;;;;;;;;1.80;54.20;;;;;;8405178;28;19928;-71
2022/03/04 02:47:09;;;;;;;;;;;1.70;54.40;;;;;;8396479;28;20206;-71
2022/03/04 02:51:11;;;;;;;;;;;1.70;54.70;;;;;;8404601;28;20395;-70
2022/03/04 02:55:12;;;;;;;;;;;1.60;54.90;;;;;;8409936;28;19951;-71
2022/03/04 02:59:14;;;;;;;;;;;1.60;54.80;;;;;;8403681;28;19999;-71
2022/03/04 03:03:16;;;;;;;;;;;1.50;55.00;;;;;;8394096;28;19921;-72
2022/03/04 03:07:17;;;;;;;;;;;1.40;55.30;;;;;;8392653;28;19924;-71
2022/03/04 03:11:19;;;;;;;;;;;1.30;55.10;;;;;;8392227;28;19933;-71
2022/03/04 03:15:20;;;;;;;;;;;1.20;55.90;;;;;;8409992;28;19920;-71
2022/03/04 03:19:22;;;;;;;;;;;1.20;56.40;;;;;;8404671;28;19924;-71
2022/03/04 03:23:24;;;;;;;;;;;1.10;55.90;;;;;;8397851;28;19962;-71
2022/03/04 03:27:25;;;;;;;;;;;1.10;56.00;;;;;;8406003;28;19967;-71
2022/03/04 03:31:27;;;;;;;;;;;1.10;56.50;;;;;;8409829;28;20003;-71
2022/03/04 03:35:28;;;;;;;;;;;1.10;56.70;;;;;;8391772;28;20295;-71
2022/03/04 03:39:30;;;;;;;;;;;1.20;57.80;;;;;;8411071;28;19920;-71
2022/03/04 03:43:32;;;;;;;;;;;1.20;57.70;;;;;;8404824;28;20033;-71
2022/03/04 03:47:33;;;;;;;;;;;1.20;58.40;;;;;;8390017;28;20413;-71
2022/03/04 03:51:35;;;;;;;;;;;1.30;58.50;;;;;;8405224;28;19963;-71
2022/03/04 03:55:37;;;;;;;;;;;1.30;58.40;;;;;;8405276;28;20442;-71
2022/03/04 03:59:38;;;;;;;;;;;1.30;58.30;;;;;;8400328;28;19928;-71
2022/03/04 04:03:40;;;;;;;;;;;1.30;59.10;;;;;;8404889;28;19963;-71
2022/03/04 04:07:41;;;;;;;;;;;1.30;59.50;;;;;;8378865;28;20007;-71
2022/03/04 04:11:43;;;;;;;;;;;1.30;59.60;;;;;;8407347;28;19924;-71
2022/03/04 04:15:45;;;;;;;;;;;1.30;59.50;;;;;;8405620;28;20287;-71
2022/03/04 04:19:46;;;;;;;;;;;1.30;59.00;;;;;;8407344;28;19921;-71
2022/03/04 04:23:48;;;;;;;;;;;1.30;59.10;;;;;;8384519;28;19966;-70
2022/03/04 04:27:49;;;;;;;;;;;1.30;59.50;;;;;;8409457;28;19956;-71
2022/03/04 04:31:51;;;;;;;;;;;1.30;59.30;;;;;;8405176;28;19974;-71
2022/03/04 04:35:53;;;;;;;;;;;1.30;58.90;;;;;;8407018;28;19924;-71
2022/03/04 04:39:54;;;;;;;;;;;1.30;58.90;;;;;;8386216;28;19927;-71
2022/03/04 04:43:56;;;;;;;;;;;1.30;58.70;;;;;;8400737;28;19942;-71
2022/03/04 04:47:57;;;;;;;;;;;1.30;59.20;;;;;;8404759;28;19924;-71
2022/03/04 04:51:59;;;;;;;;;;;1.20;58.70;;;;;;8397972;28;19924;-71
2022/03/04 04:56:01;;;;;;;;;;;1.20;59.00;;;;;;8400364;28;19968;-71
2022/03/04 05:00:03;;;;;;;;;;;1.20;60.80;;;;;;8403069;28;19923;-71
2022/03/04 05:04:06;;;;;;;;;;;1.10;59.60;;;;;;8389871;28;19955;-71
2022/03/04 05:08:07;;;;;;;;;;;1.10;60.10;;;;;;8403816;28;19985;-71
2022/03/04 05:12:09;;;;;;;;;;;1.10;60.50;;;;;;8404501;28;19959;-71
2022/03/04 05:16:11;;;;;;;;;;;1.10;60.30;;;;;;8407339;28;19920;-70
2022/03/04 05:20:15;;;;;;;;;;;1.00;61.10;;;;;;8403957;28;19968;-71
2022/03/04 05:24:17;;;;;;;;;;;1.00;61.00;;;;;;8378095;28;19959;-71
2022/03/04 05:28:18;;;;;;;;;;;1.00;60.80;;;;;;8404825;28;20299;-71
2022/03/04 05:32:20;;;;;;;;;;;0.90;60.60;;;;;;8381326;28;19963;-71
2022/03/04 05:36:21;;;;;;;;;;;0.90;61.20;;;;;;8381118;28;20364;-71
2022/03/04 05:40:23;;;;;;;;;;;0.90;61.80;;;;;;8399233;28;19959;-71
2022/03/04 05:44:25;;;;;;;;;;;0.90;61.20;;;;;;8401700;28;20006;-71
2022/03/04 05:48:26;;;;;;;;;;;0.80;61.00;;;;;;8392101;28;19925;-71
2022/03/04 05:52:28;;;;;;;;;;;0.80;59.90;;;;;;8402864;28;20371;-71
2022/03/04 05:56:30;;;;;;;;;;;0.80;60.20;;;;;;8418985;28;19943;-71
2022/03/04 06:00:31;;;;;;;;;;;0.70;59.90;;;;;;8410409;28;19959;-71
2022/03/04 06:04:36;;;;;;;;;;;0.70;61.40;;;;;;8402330;28;19924;-71
2022/03/04 06:08:38;;;;;;;;;;;0.70;61.40;;;;;;8393861;28;20387;-71
2022/03/04 06:12:40;;;;;;;;;;;0.70;61.50;;;;;;8402527;28;19952;-70
2022/03/04 06:16:41;;;;;;;;;;;0.60;61.50;;;;;;8413114;28;19926;-71
2022/03/04 06:20:44;;;;;;;;;;;0.60;61.50;;;;;;8389960;28;20355;-71
2022/03/04 06:24:46;;;;;;;;;;;0.60;61.50;;;;;;8407051;28;19928;-71
2022/03/04 06:28:48;;;;;;;;;;;0.50;61.40;;;;;;8406942;28;20372;-70
2022/03/04 06:32:50;;;;;;;;;;;0.50;61.50;;;;;;8380973;28;20002;-71
2022/03/04 06:36:52;;;;;;;;;;;0.50;61.00;;;;;;8413143;28;20283;-71
2022/03/04 06:40:53;;;;;;;;;;;0.50;61.20;;;;;;8409832;28;20094;-70
2022/03/04 06:44:55;;;;;;;;;;;0.50;60.50;;;;;;8411788;28;19931;-71
2022/03/04 06:49:01;;;;;;;;;;;0.40;60.70;;;;;;8391034;28;19921;-71
2022/03/04 06:53:03;;;;;;;;;;;0.40;60.10;;;;;;8404798;28;20010;-71
2022/03/04 06:57:04;;;;;;;;;;;0.40;60.70;;;;;;8389220;28;19943;-71
2022/03/04 07:01:06;;;;;;;;;;;0.50;60.60;;;;;;8406883;28;20009;-71
2022/03/04 07:05:08;;;;;;;;;;;0.60;60.90;;;;;;8394785;28;19924;-70
2022/03/04 07:09:10;;;;;;;;;;;0.70;61.30;;;;;;8414640;28;19927;-71
2022/03/04 07:13:12;;;;;;;;;;;0.80;62.30;;;;;;8405382;28;19960;-70
2022/03/04 07:17:14;;;;;;;;;;;0.90;63.40;;;;;;8392365;28;19924;-71
2022/03/04 07:21:16;;;;;;;;;;;1.10;64.30;;;;;;8409121;28;19975;-71
2022/03/04 07:25:18;;;;;;;;;;;1.30;64.70;;;;;;8404589;28;19970;-70
2022/03/04 07:29:20;;;;;;;;;;;1.50;66.20;;;;;;8406757;28;19952;-70
2022/03/04 07:33:21;;;;;;;;;;;1.60;65.40;;;;;;8388106;28;19967;-71
2022/03/04 07:37:23;;;;;;;;;;;1.80;65.80;;;;;;8409598;28;19920;-71
2022/03/04 07:41:25;;;;;;;;;;;2.00;66.40;;;;;;8406816;28;20282;-71
2022/03/04 07:45:26;;;;;;;;;;;2.20;66.60;;;;;;8403446;28;20302;-71
2022/03/04 07:49:28;;;;;;;;;;;2.40;67.80;;;;;;8399795;28;19959;-71
2022/03/04 07:53:34;;;;;;;;;;;2.50;66.50;;;;;;8395069;28;19982;-71
2022/03/04 07:57:37;;;;;;;;;;;2.70;67.80;;;;;;8389040;28;19928;-71
2022/03/04 08:01:40;;;;;;;;;;;2.90;68.20;;;;;;8406960;28;19951;-72
2022/03/04 08:05:43;;;;;;;;;;;3.00;67.60;;;;;;8406841;28;20338;-72
2022/03/04 08:09:45;;;;;;;;;;;3.20;67.90;;;;;;8389615;28;19921;-71
2022/03/04 08:13:47;;;;;;;;;;;3.40;67.60;;;;;;8388918;28;19963;-72
2022/03/04 08:17:49;;;;;;;;;;;3.50;68.00;;;;;;8408275;28;19920;-72
2022/03/04 08:21:51;;;;;;;;;;;3.70;67.90;;;;;;8401493;28;19959;-72
2022/03/04 08:26:09;;;;;;;;;;;3.80;67.80;;;;;;8401917;28;19924;-71
2022/03/04 08:30:11;;;;;;;;;;;4.00;68.70;;;;;;8389780;28;19959;-71
2022/03/04 08:34:13;;;;;;;;;;;4.20;68.60;;;;;;8414173;28;20004;-71
2022/03/04 08:38:14;;;;;;;;;;;4.40;69.80;;;;;;8409719;28;20252;-72
2022/03/04 08:42:16;;;;;;;;;;;4.60;71.50;;;;;;8382600;28;19963;-71
2022/03/04 08:46:18;;;;;;;;;;;4.70;70.00;;;;;;8388465;28;20287;-71
2022/03/04 08:50:21;;;;;;;;;;;4.90;69.50;;;;;;8412248;28;19924;-71
2022/03/04 08:54:23;;;;;;;;;;;5.10;69.60;;;;;;8412606;28;19920;-71
2022/03/04 08:58:25;;;;;;;;;;;5.40;70.00;;;;;;8397143;28;19920;-71
2022/03/04 09:02:27;;;;;;;;;;;5.50;70.60;;;;;;8391516;28;19920;-71
2022/03/04 09:06:28;;;;;;;;;;;5.70;71.00;;;;;;8382829;28;19920;-71
2022/03/04 09:10:30;;;;;;;;;;;5.90;70.80;;;;;;8410603;28;19924;-71
2022/03/04 09:14:36;;;;;;;;;;;6.00;71.30;;;;;;8393582;28;19920;-71
2022/03/04 09:18:38;;;;;;;;;;;6.20;71.30;;;;;;8404301;28;19920;-71
2022/03/04 09:22:40;;;;;;;;;;;6.30;70.90;;;;;;8408327;28;20433;-72
2022/03/04 09:26:42;;;;;;;;;;;6.40;71.60;;;;;;8392835;28;19963;-71
2022/03/04 09:30:43;;;;;;;;;;;6.60;70.80;;;;;;8403260;28;20176;-71
2022/03/04 09:34:45;;;;;;;;;;;6.70;71.20;;;;;;8403595;28;19924;-71
2022/03/04 09:38:47;;;;;;;;;;;6.90;70.70;;;;;;8417716;28;20284;-71
2022/03/04 09:42:48;;;;;;;;;;;7.10;70.90;;;;;;8406948;28;19920;-72
2022/03/04 09:46:52;;;;;;;;;;;7.20;70.80;;;;;;8420617;28;19967;-72
2022/03/04 09:50:57;;;;;;;;;;;7.30;70.40;;;;;;8405591;28;19942;-71
2022/03/04 09:54:59;;;;;;;;;;;7.50;71.10;;;;;;8410812;28;19920;-71
2022/03/04 09:59:01;;;;;;;;;;;7.90;71.00;;;;;;8408898;28;19927;-71
2022/03/04 10:03:03;;;;;;;;;;;8.10;71.60;;;;;;8421972;28;19970;-71
2022/03/04 10:07:09;;;;;;;;;;;8.30;72.40;;;;;;8387366;28;19920;-71
2022/03/04 10:11:11;;;;;;;;;;;8.70;74.20;;;;;;8399880;28;19955;-71
2022/03/04 10:15:12;;;;;;;;;;;9.00;77.50;;;;;;8406939;28;19927;-71
2022/03/04 10:19:15;;;;;;;;;;;9.20;77.20;;;;;;8412023;28;19931;-71
2022/03/04 10:23:17;;;;;;;;;;;9.50;79.80;;;;;;8417092;28;19959;-71
2022/03/04 10:27:18;;;;;;;;;;;9.90;82.40;;;;;;8406931;28;20283;-71
2022/03/04 10:31:20;;;;;;;;;;;10.10;78.30;;;;;;8409339;28;19920;-72
2022/03/04 10:35:42;;;;;;;;;;;10.10;79.90;;;;;;8408632;28;20397;-71
2022/03/04 10:40:04;;;;;;;;;;;10.60;83.00;;;;;;8410865;28;19964;-72
2022/03/04 10:44:25;;;;;;;;;;;11.00;84.40;;;;;;8401183;28;19928;-72
2022/03/04 10:48:27;;;;;;;;;;;11.30;83.00;;;;;;8421004;28;19947;-72
2022/03/04 10:52:29;;;;;;;;;;;11.50;82.30;;;;;;8390713;28;20283;-72
2022/03/04 10:56:46;;;;;;;;;;;11.80;85.60;;;;;;8400497;28;19971;-72
2022/03/04 11:00:52;;;;;;;;;;;12.10;83.20;;;;;;8416276;28;19928;-71
2022/03/04 11:05:00;;;;;;;;;;;12.40;88.50;;;;;;8396056;28;19939;-72
2022/03/04 11:09:03;;;;;;;;;;;13.00;90.40;;;;;;8416679;28;19924;-72
2022/03/04 11:13:05;;;;;;;;;;;13.40;86.20;;;;;;8409444;28;19924;-72
2022/03/04 11:17:07;;;;;;;;;;;13.70;90.60;;;;;;8391557;28;19989;-72
2022/03/04 11:21:09;;;;;;;;;;;13.90;87.90;;;;;;8411560;28;20375;-72
2022/03/04 11:25:12;;;;;;;;;;;13.80;80.80;;;;;;8407159;28;19920;-72
2022/03/04 11:29:34;;;;;;;;;;;13.70;81.60;;;;;;8402135;28;20010;-71
2022/03/04 11:33:37;;;;;;;;;;;13.90;85.70;;;;;;8402617;28;19935;-72
2022/03/04 11:37:49;;;;;;;;;;;14.40;85.80;;;;;;8401174;28;20303;-72
2022/03/04 11:41:50;;;;;;;;;;;15.00;89.20;;;;;;8412979;28;20077;-72
2022/03/04 11:46:02;;;;;;;;;;;15.80;90.60;;;;;;8391172;28;19920;-72
2022/03/04 11:50:23;;;;;;;;;;;16.20;90.30;;;;;;8405077;28;19968;-72
2022/03/04 11:54:25;;;;;;;;;;;16.00;87.00;;;;;;8405445;28;19928;-72
2022/03/04 11:58:27;;;;;;;;;;;15.90;86.10;;;;;;8405780;28;20593;-72
2022/03/04 12:02:29;;;;;;;;;;;16.30;87.30;;;;;;8409418;28;21497;-72
2022/03/04 12:06:32;;;;;;;;;;;16.70;89.00;;;;;;8415280;28;19935;-72
2022/03/04 12:10:45;;;;;;;;;;;17.10;87.70;;;;;;8414971;28;19920;-72
2022/03/04 12:14:47;;;;;;;;;;;17.30;83.60;;;;;;8413574;28;19928;-72
2022/03/04 12:18:50;;;;;;;;;;;17.80;86.90;;;;;;8403645;28;19927;-72
2022/03/04 12:22:56;;;;;;;;;;;18.30;81.20;;;;;;8413028;28;19920;-72
2022/03/04 12:26:58;;;;;;;;;;;18.40;83.60;;;;;;8397236;28;20049;-72
2022/03/04 12:31:03;;;;;;;;;;;18.80;86.90;;;;;;8418637;28;19919;-72
2022/03/04 12:35:05;;;;;;;;;;;19.10;81.20;;;;;;8418811;28;19980;-72
2022/03/04 12:39:07;;;;;;;;;;;19.00;76.90;;;;;;8391548;28;19930;-72
2022/03/04 12:43:10;;;;;;;;;;;18.70;70.60;;;;;;8411355;28;20294;-72
2022/03/04 12:47:12;;;;;;;;;;;18.40;73.40;;;;;;8409516;28;19928;-72
2022/03/04 12:51:22;;;;;;;;;;;18.30;71.30;;;;;;8409359;28;19956;-72
2022/03/04 12:55:23;;;;;;;;;;;18.20;63.30;;;;;;8392054;28;19920;-72
2022/03/04 12:59:30;;;;;;;;;;;18.00;70.20;;;;;;8421228;28;19928;-72
2022/03/04 13:03:33;;;;;;;;;;;18.50;65.40;;;;;;8408980;28;19919;-72
2022/03/04 13:07:36;;;;;;;;;;;18.40;65.90;;;;;;8419722;28;20365;-72
2022/03/04 13:11:38;;;;;;;;;;;18.10;65.50;;;;;;8414492;28;19920;-72
2022/03/04 13:15:47;;;;;;;;;;;17.40;60.90;;;;;;8408284;28;19928;-72
2022/03/04 13:19:49;;;;;;;;;;;16.70;54.50;;;;;;8393899;28;19968;-72
2022/03/04 13:23:51;;;;;;;;;;;16.10;53.00;;;;;;8416286;28;19928;-71
2022/03/04 13:27:53;;;;;;;;;;;15.70;52.40;;;;;;8407268;28;19923;-72
2022/03/04 13:32:13;;;;;;;;;;;15.60;50.90;;;;;;8409985;28;20574;-72
2022/03/04 13:36:15;;;;;;;;;;;15.30;49.10;;;;;;8407296;28;19951;-71
2022/03/04 13:40:18;;;;;;;;;;;15.00;49.00;;;;;;8416188;28;19928;-72
2022/03/04 13:44:21;;;;;;;;;;;14.90;48.40;;;;;;8408146;28;20393;-72
2022/03/04 13:48:23;;;;;;;;;;;14.80;47.50;;;;;;8399713;28;19932;-71
2022/03/04 13:52:25;;;;;;;;;;;14.70;47.20;;;;;;8410406;28;20706;-72
2022/03/04 13:56:36;;;;;;;;;;;14.60;47.50;;;;;;8414790;28;19928;-72
2022/03/04 14:00:39;;;;;;;;;;;14.60;46.60;;;;;;8414472;28;20391;-72
2022/03/04 14:04:50;;;;;;;;;;;14.50;46.90;;;;;;8416968;28;20014;-72
2022/03/04 14:08:54;;;;;;;;;;;14.30;46.00;;;;;;8413537;28;19931;-72
2022/03/04 14:12:56;;;;;;;;;;;14.40;47.00;;;;;;8390425;28;20343;-72
2022/03/04 14:17:00;;;;;;;;;;;14.40;47.00;;;;;;8422793;28;19951;-72
2022/03/04 14:21:03;;;;;;;;;;;14.30;46.30;;;;;;8395595;28;19924;-72
2022/03/04 14:25:06;;;;;;;;;;;14.20;47.10;;;;;;8428438;28;20292;-72
2022/03/04 14:29:10;;;;;;;;;;;14.30;47.90;;;;;;8421592;28;19987;-72
2022/03/04 14:33:12;;;;;;;;;;;14.40;48.30;;;;;;8411601;28;19932;-72
2022/03/04 14:37:14;;;;;;;;;;;14.80;49.00;;;;;;8418913;28;20305;-72
2022/03/04 14:41:17;;;;;;;;;;;16.10;52.70;;;;;;8397562;28;20320;-71
2022/03/04 14:45:20;;;;;;;;;;;17.50;56.80;;;;;;8423061;28;19996;-72
2022/03/04 14:49:21;;;;;;;;;;;18.70;59.10;;;;;;8399287;28;19989;-72
2022/03/04 14:53:23;;;;;;;;;;;19.70;60.50;;;;;;8419454;28;19924;-72
2022/03/04 14:57:25;;;;;;;;;;;20.50;63.00;;;;;;8418281;28;20017;-72
2022/03/04 15:01:27;;;;;;;;;;;21.00;62.10;;;;;;8412495;28;20026;-72
2022/03/04 15:05:28;;;;;;;;;;;21.10;56.30;;;;;;8417405;28;19932;-72
2022/03/04 15:09:34;;;;;;;;;;;21.00;59.40;;;;;;8419630;28;19977;-72
2022/03/04 15:13:55;;;;;;;;;;;21.60;60.30;;;;;;8417736;28;20376;-72
2022/03/04 15:17:57;;;;;;;;;;;21.70;59.40;;;;;;8412985;28;19924;-72
2022/03/04 15:21:59;;;;;;;;;;;21.80;57.30;;;;;;8407265;28;19927;-72
2022/03/04 15:26:01;;;;;;;;;;;21.60;57.00;;;;;;8419780;28;19935;-72
2022/03/04 15:30:07;;;;;;;;;;;21.40;55.40;;;;;;8417693;28;20379;-72
2022/03/04 15:34:10;;;;;;;;;;;21.20;54.80;;;;;;8419127;28;19924;-72
2022/03/04 15:38:11;;;;;;;;;;;21.10;52.70;;;;;;8397701;28;19925;-72
2022/03/04 15:42:13;;;;;;;;;;;20.60;49.40;;;;;;8420581;28;19924;-72
2022/03/04 15:46:14;;;;;;;;;;;20.00;49.10;;;;;;8417103;28;19924;-72
2022/03/04 15:50:16;;;;;;;;;;;19.60;48.90;;;;;;8420416;28;19935;-72
2022/03/04 15:54:18;;;;;;;;;;;19.50;47.70;;;;;;8410011;28;19947;-72
2022/03/04 15:58:20;;;;;;;;;;;19.20;47.00;;;;;;8416472;28;19936;-72
2022/03/04 16:02:22;;;;;;;;;;;19.10;47.00;;;;;;8411843;28;19935;-72
2022/03/04 16:06:24;;;;;;;;;;;19.20;47.50;;;;;;8404291;28;19931;-72
2022/03/04 16:10:28;;;;;;;;;;;19.30;47.40;;;;;;8388768;28;19928;-72
2022/03/04 16:14:30;;;;;;;;;;;19.40;47.30;;;;;;8415745;28;19928;-72
2022/03/04 16:18:31;;;;;;;;;;;18.90;45.30;;;;;;8413551;28;19955;-72
2022/03/04 16:22:33;;;;;;;;;;;18.20;44.90;;;;;;8407589;28;19925;-72
2022/03/04 16:26:35;;;;;;;;;;;17.70;44.60;;;;;;8383589;28;20299;-72
2022/03/04 16:30:37;;;;;;;;;;;17.30;44.20;;;;;;8409565;28;19928;-72
2022/03/04 16:34:41;;;;;;;;;;;17.00;44.40;;;;;;8386470;28;19977;-72
2022/03/04 16:38:44;;;;;;;;;;;16.90;44.60;;;;;;8414608;28;20508;-72
2022/03/04 16:42:46;;;;;;;;;;;16.80;44.50;;;;;;8390457;28;20398;-72
2022/03/04 16:46:48;;;;;;;;;;;16.50;44.00;;;;;;8395845;28;20406;-72
2022/03/04 16:51:09;;;;;;;;;;;16.10;43.70;;;;;;8388993;28;20483;-72
2022/03/04 16:55:11;;;;;;;;;;;15.50;43.40;;;;;;8393007;28;20279;-72
2022/03/04 16:59:13;;;;;;;;;;;15.00;43.20;;;;;;8372940;28;19924;-72
2022/03/04 17:03:35;;;;;;;;;;;14.60;43.10;;;;;;8396238;28;20011;-72
2022/03/04 17:07:37;;;;;;;;;;;14.10;42.90;;;;;;8403964;28;19928;-72
2022/03/04 17:11:38;;;;;;;;;;;13.80;43.10;;;;;;8396455;28;19931;-72
2022/03/04 17:15:40;;;;;;;;;;;13.40;43.10;;;;;;8382371;28;19932;-72
2022/03/04 17:19:43;;;;;;;;;;;13.00;43.20;;;;;;8399692;28;19928;-72
2022/03/04 17:23:45;;;;;;;;;;;12.60;43.10;;;;;;8397353;28;19932;-72
2022/03/04 17:27:47;;;;;;;;;;;12.30;43.30;;;;;;8380605;28;19936;-72
2022/03/04 17:31:48;;;;;;;;;;;12.00;43.40;;;;;;8374544;28;19943;-72
2022/03/04 17:35:50;;;;;;;;;;;11.80;43.50;;;;;;8392799;28;19925;-72
2022/03/04 17:39:53;;;;;;;;;;;11.60;43.60;;;;;;8378778;28;19931;-72
2022/03/04 17:43:55;;;;;;;;;;;11.50;43.70;;;;;;8392498;28;19924;-72
2022/03/04 17:47:56;;;;;;;;;;;11.30;43.70;;;;;;8376412;28;20012;-72
2022/03/04 17:51:59;;;;;;;;;;;11.20;44.10;;;;;;8404273;28;19924;-72
2022/03/04 17:56:02;;;;;;;;;;;11.00;44.10;;;;;;8398644;28;19931;-72
2022/03/04 18:00:05;;;;;;;;;;;10.70;44.40;;;;;;8401313;28;19935;-72
2022/03/04 18:04:07;;;;;;;;;;;10.50;44.60;;;;;;8398374;28;20335;-72
2022/03/04 18:08:08;;;;;;;;;;;10.40;44.90;;;;;;8386493;28;19950;-72
2022/03/04 18:12:10;;;;;;;;;;;10.20;45.60;;;;;;8403608;28;20067;-72
2022/03/04 18:16:12;;;;;;;;;;;10.10;46.10;;;;;;8402093;28;19964;-72
2022/03/04 18:20:14;;;;;;;;;;;10.00;46.30;;;;;;8402877;28;19978;-72
2022/03/04 18:24:15;;;;;;;;;;;9.80;47.20;;;;;;8400386;28;19924;-72
2022/03/04 18:28:17;;;;;;;;;;;9.80;47.30;;;;;;8397455;28;19932;-72
2022/03/04 18:32:19;;;;;;;;;;;9.70;47.50;;;;;;8403291;28;19931;-72
2022/03/04 18:36:21;;;;;;;;;;;9.60;48.00;;;;;;8394990;28;19928;-72
2022/03/04 18:40:23;;;;;;;;;;;9.50;47.80;;;;;;8398284;28;19932;-72
2022/03/04 18:44:24;;;;;;;;;;;9.40;47.90;;;;;;8393361;28;19940;-72
2022/03/04 18:48:26;;;;;;;;;;;9.20;48.20;;;;;;8390306;28;20337;-72
2022/03/04 18:52:27;;;;;;;;;;;9.10;48.20;;;;;;8402371;28;19928;-72
2022/03/04 18:56:29;;;;;;;;;;;9.00;48.30;;;;;;8398969;28;19928;-72
2022/03/04 19:00:31;;;;;;;;;;;8.90;48.20;;;;;;8400914;28;19928;-72
2022/03/04 19:04:34;;;;;;;;;;;8.80;48.50;;;;;;8376379;28;19924;-72
2022/03/04 19:08:35;;;;;;;;;;;8.70;48.80;;;;;;8386253;28;19928;-71
2022/03/04 19:12:38;;;;;;;;;;;8.60;49.00;;;;;;8397389;28;20290;-72
2022/03/04 19:16:39;;;;;;;;;;;8.50;49.20;;;;;;8386537;28;19984;-72
2022/03/04 19:20:41;;;;;;;;;;;8.40;49.40;;;;;;8400348;28;19931;-72
2022/03/04 19:24:43;;;;;;;;;;;8.30;49.60;;;;;;8397484;28;20038;-72
2022/03/04 19:28:45;;;;;;;;;;;8.20;49.60;;;;;;8395119;28;20433;-72
2022/03/04 19:32:46;;;;;;;;;;;8.10;50.00;;;;;;8398764;28;19930;-72
2022/03/04 19:36:48;;;;;;;;;;;8.00;50.20;;;;;;8394305;28;19928;-72
2022/03/04 19:40:50;;;;;;;;;;;7.90;50.30;;;;;;8388378;28;19928;-72
2022/03/04 19:44:52;;;;;;;;;;;7.90;50.50;;;;;;8399427;28;19928;-72
2022/03/04 19:48:54;;;;;;;;;;;7.80;50.60;;;;;;8377710;28;19925;-72
2022/03/04 19:52:55;;;;;;;;;;;7.70;50.60;;;;;;8398984;28;20376;-72
2022/03/04 19:56:57;;;;;;;;;;;7.60;50.80;;;;;;8383246;28;19942;-72
2022/03/04 20:00:59;;;;;;;;;;;7.50;50.80;;;;;;8385704;28;19954;-72
2022/03/04 20:05:01;;;;;;;;;;;7.40;50.80;;;;;;8398708;28;19977;-72
2022/03/04 20:09:04;;;;;;;;;;;7.30;50.70;;;;;;8401656;28;24171;-72
2022/03/04 20:13:06;;;;;;;;;;;7.30;50.80;;;;;;8397855;28;19928;-72
2022/03/04 20:17:07;;;;;;;;;;;7.20;50.40;;;;;;8404883;28;19928;-72
2022/03/04 20:21:10;;;;;;;;;;;7.10;50.40;;;;;;8400814;28;19934;-72
2022/03/04 20:25:12;;;;;;;;;;;7.00;50.70;;;;;;8388986;28;19936;-72
2022/03/04 20:29:14;;;;;;;;;;;6.90;51.40;;;;;;8377825;28;19924;-71
2022/03/04 20:33:16;;;;;;;;;;;6.80;51.20;;;;;;8397865;28;19928;-72
2022/03/04 20:37:23;;;;;;;;;;;6.70;51.90;;;;;;8404680;28;19928;-72
2022/03/04 20:41:25;;;;;;;;;;;6.70;52.00;;;;;;8401424;28;19929;-72
2022/03/04 20:45:27;;;;;;;;;;;6.50;51.20;;;;;;8403693;28;19972;-72
2022/03/04 20:49:28;;;;;;;;;;;6.50;52.20;;;;;;8404527;28;19938;-71
2022/03/04 20:53:30;;;;;;;;;;;6.50;51.50;;;;;;8399429;28;19932;-72
2022/03/04 20:57:32;;;;;;;;;;;6.40;51.20;;;;;;8404816;28;20376;-72
2022/03/04 21:01:34;;;;;;;;;;;6.40;51.10;;;;;;8402917;28;19963;-72
2022/03/04 21:05:36;;;;;;;;;;;6.30;50.90;;;;;;8387149;28;20397;-72
2022/03/04 21:09:37;;;;;;;;;;;6.20;50.90;;;;;;8407120;28;19924;-72
2022/03/04 21:13:40;;;;;;;;;;;6.10;51.50;;;;;;8405337;28;19931;-72
2022/03/04 21:17:42;;;;;;;;;;;5.90;51.10;;;;;;8386486;28;19932;-72
2022/03/04 21:21:53;;;;;;;;;;;5.70;51.10;;;;;;8403883;28;20528;-72
2022/03/04 21:25:54;;;;;;;;;;;5.50;51.20;;;;;;8387700;28;19924;-72
2022/03/04 21:29:56;;;;;;;;;;;5.30;51.50;;;;;;8405020;28;19924;-72
2022/03/04 21:33:58;;;;;;;;;;;5.10;51.70;;;;;;8405077;28;19934;-72
2022/03/04 21:38:00;;;;;;;;;;;5.10;51.80;;;;;;8403171;28;19929;-72
2022/03/04 21:42:02;;;;;;;;;;;5.00;51.90;;;;;;8403042;28;20406;-72
2022/03/04 21:46:03;;;;;;;;;;;4.90;52.30;;;;;;8387211;28;19924;-72
2022/03/04 21:50:05;;;;;;;;;;;4.70;52.00;;;;;;8403082;28;19932;-72
2022/03/04 21:54:07;;;;;;;;;;;4.50;52.10;;;;;;8386896;28;20076;-72
2022/03/04 21:58:09;;;;;;;;;;;4.50;52.30;;;;;;8388532;28;19928;-71
2022/03/04 22:02:11;;;;;;;;;;;4.40;52.60;;;;;;8405676;28;19924;-72
2022/03/04 22:06:13;;;;;;;;;;;4.40;52.90;;;;;;8384890;28;19925;-72
2022/03/04 22:10:15;;;;;;;;;;;4.20;52.90;;;;;;8419794;28;19947;-72
2022/03/04 22:14:17;;;;;;;;;;;4.20;53.10;;;;;;8410258;28;19939;-72
2022/03/04 22:18:18;;;;;;;;;;;4.10;53.30;;;;;;8390194;28;19932;-72
2022/03/04 22:22:20;;;;;;;;;;;4.10;53.50;;;;;;8407792;28;19944;-72
2022/03/04 22:26:21;;;;;;;;;;;4.10;53.70;;;;;;8413935;28;19954;-72
2022/03/04 22:30:23;;;;;;;;;;;4.00;54.20;;;;;;8418857;28;19932;-72
2022/03/04 22:34:25;;;;;;;;;;;4.00;54.50;;;;;;8394165;28;20598;-72
2022/03/04 22:38:27;;;;;;;;;;;3.90;55.00;;;;;;8412859;28;19935;-71
2022/03/04 22:42:28;;;;;;;;;;;3.90;55.30;;;;;;8401074;28;19939;-72
2022/03/04 22:46:30;;;;;;;;;;;3.80;55.20;;;;;;8396038;28;19944;-72
2022/03/04 22:50:32;;;;;;;;;;;3.80;55.20;;;;;;8406790;28;19924;-72
2022/03/04 22:54:33;;;;;;;;;;;3.70;54.90;;;;;;8411936;28;19932;-72
2022/03/04 22:58:35;;;;;;;;;;;3.70;55.40;;;;;;8412233;28;19932;-72
2022/03/04 23:11:25;;;;;;;;;;;3.60;56.10;;;;;;8424530;28;19924;-72
2022/03/04 23:15:26;;;;;;;;;;;3.60;55.90;;;;;;8410958;28;19939;-72
2022/03/04 23:19:28;;;;;;;;;;;3.50;55.90;;;;;;8408425;28;19932;-71
2022/03/04 23:23:30;;;;;;;;;;;3.50;57.50;;;;;;8404832;28;19935;-72
2022/03/04 23:27:31;;;;;;;;;;;3.40;57.10;;;;;;8390203;28;20347;-72
2022/03/04 23:31:53;;;;;;;;;;;3.30;57.80;;;;;;8413174;28;20014;-72
2022/03/04 23:35:55;;;;;;;;;;;3.30;57.90;;;;;;8412979;28;19932;-72
2022/03/04 23:39:56;;;;;;;;;;;3.20;58.10;;;;;;8417212;28;19955;-72
2022/03/04 23:43:58;;;;;;;;;;;3.10;58.00;;;;;;8393932;28;19932;-72
2022/03/04 23:48:03;;;;;;;;;;;3.10;57.60;;;;;;8411231;28;19936;-72
2022/03/04 23:52:05;;;;;;;;;;;3.00;57.50;;;;;;8424388;28;20335;-72
2022/03/04 23:56:06;;;;;;;;;;;2.90;57.60;;;;;;8409722;28;19928;-72
